Terminal Aerodrome Forecast
Issued by NWS Huntsville, AL

Home | Current Version | Previous Version | Text Only | Print | Product List | Glossary On
Versions: 1 2 3 4 5 6 7 8 9 10 11 12 13 14 15
000
FTUS44 KHUN 180532
TAFMSL
TAF
KMSL 180532Z 1806/1906 17012KT P6SM BKN040 BKN120
     FM180900 18015G25KT P6SM BKN020 OVC060
     FM181500 20025G35KT P6SM VCSH BKN025 OVC040
      TEMPO 1822/1902 3SM -TSRA BR OVC020CB=

USA.gov is the U.S. government's official web portal to all federal, state and local government web resources and services.